sensor_id;sensor_type;location;lat;lon;timestamp;P1;durP1;ratioP1;P2;durP2;ratioP2
45007;SDS011;30743;52.008;5.644;2023-05-07T00:01:47;4.35;;;3.95;;
45007;SDS011;30743;52.008;5.644;2023-05-07T00:04:13;5.47;;;4.05;;
45007;SDS011;30743;52.008;5.644;2023-05-07T00:06:39;6.10;;;4.00;;
45007;SDS011;30743;52.008;5.644;2023-05-07T00:09:04;5.70;;;3.78;;
45007;SDS011;30743;52.008;5.644;2023-05-07T00:11:30;5.38;;;3.90;;
45007;SDS011;30743;52.008;5.644;2023-05-07T00:13:56;4.38;;;3.60;;
45007;SDS011;30743;52.008;5.644;2023-05-07T00:16:22;5.18;;;3.97;;
45007;SDS011;30743;52.008;5.644;2023-05-07T00:18:47;4.05;;;3.58;;
45007;SDS011;30743;52.008;5.644;2023-05-07T00:21:13;4.50;;;3.45;;
45007;SDS011;30743;52.008;5.644;2023-05-07T00:23:39;4.88;;;3.72;;
45007;SDS011;30743;52.008;5.644;2023-05-07T00:26:04;6.20;;;4.20;;
45007;SDS011;30743;52.008;5.644;2023-05-07T00:28:30;4.88;;;3.88;;
45007;SDS011;30743;52.008;5.644;2023-05-07T00:30:55;4.32;;;3.92;;
45007;SDS011;30743;52.008;5.644;2023-05-07T00:33:21;6.03;;;4.13;;
45007;SDS011;30743;52.008;5.644;2023-05-07T00:35:47;4.95;;;3.97;;
45007;SDS011;30743;52.008;5.644;2023-05-07T00:38:13;6.20;;;3.92;;
45007;SDS011;30743;52.008;5.644;2023-05-07T00:40:39;4.55;;;3.80;;
45007;SDS011;30743;52.008;5.644;2023-05-07T00:43:04;5.80;;;3.92;;
45007;SDS011;30743;52.008;5.644;2023-05-07T00:45:30;5.80;;;4.50;;
45007;SDS011;30743;52.008;5.644;2023-05-07T00:47:57;4.97;;;4.00;;
45007;SDS011;30743;52.008;5.644;2023-05-07T00:50:25;4.82;;;3.65;;
45007;SDS011;30743;52.008;5.644;2023-05-07T00:52:54;4.57;;;4.00;;
45007;SDS011;30743;52.008;5.644;2023-05-07T00:55:21;8.05;;;4.35;;
45007;SDS011;30743;52.008;5.644;2023-05-07T00:57:47;6.22;;;4.40;;
45007;SDS011;30743;52.008;5.644;2023-05-07T01:00:13;6.57;;;4.88;;
45007;SDS011;30743;52.008;5.644;2023-05-07T01:02:39;6.20;;;4.65;;
45007;SDS011;30743;52.008;5.644;2023-05-07T01:05:05;5.70;;;4.80;;
45007;SDS011;30743;52.008;5.644;2023-05-07T01:07:34;6.78;;;5.22;;
45007;SDS011;30743;52.008;5.644;2023-05-07T01:10:00;6.65;;;4.72;;
45007;SDS011;30743;52.008;5.644;2023-05-07T01:12:26;5.65;;;4.75;;
45007;SDS011;30743;52.008;5.644;2023-05-07T01:14:53;5.80;;;4.78;;
45007;SDS011;30743;52.008;5.644;2023-05-07T01:17:19;8.77;;;5.38;;
45007;SDS011;30743;52.008;5.644;2023-05-07T01:19:44;7.05;;;5.20;;
45007;SDS011;30743;52.008;5.644;2023-05-07T01:22:10;6.78;;;5.70;;
45007;SDS011;30743;52.008;5.644;2023-05-07T01:24:37;6.80;;;5.03;;
45007;SDS011;30743;52.008;5.644;2023-05-07T01:27:03;7.47;;;5.63;;
45007;SDS011;30743;52.008;5.644;2023-05-07T01:29:29;6.57;;;5.25;;
45007;SDS011;30743;52.008;5.644;2023-05-07T01:31:59;8.00;;;5.88;;
45007;SDS011;30743;52.008;5.644;2023-05-07T01:34:26;7.40;;;5.45;;
45007;SDS011;30743;52.008;5.644;2023-05-07T01:36:54;6.87;;;5.67;;
45007;SDS011;30743;52.008;5.644;2023-05-07T01:39:21;6.38;;;5.15;;
45007;SDS011;30743;52.008;5.644;2023-05-07T01:41:49;8.10;;;5.53;;
45007;SDS011;30743;52.008;5.644;2023-05-07T01:44:15;7.25;;;5.70;;
45007;SDS011;30743;52.008;5.644;2023-05-07T01:46:43;6.20;;;5.38;;
45007;SDS011;30743;52.008;5.644;2023-05-07T01:49:08;8.25;;;6.18;;
45007;SDS011;30743;52.008;5.644;2023-05-07T01:51:34;6.68;;;5.65;;
45007;SDS011;30743;52.008;5.644;2023-05-07T01:54:01;6.95;;;5.28;;
45007;SDS011;30743;52.008;5.644;2023-05-07T01:56:26;7.13;;;6.13;;
45007;SDS011;30743;52.008;5.644;2023-05-07T01:58:52;6.07;;;5.38;;
45007;SDS011;30743;52.008;5.644;2023-05-07T02:01:17;7.50;;;5.03;;
45007;SDS011;30743;52.008;5.644;2023-05-07T02:03:43;6.05;;;5.25;;
45007;SDS011;30743;52.008;5.644;2023-05-07T02:06:09;6.30;;;5.15;;
45007;SDS011;30743;52.008;5.644;2023-05-07T02:08:35;7.82;;;5.97;;
45007;SDS011;30743;52.008;5.644;2023-05-07T02:11:00;6.68;;;5.55;;
45007;SDS011;30743;52.008;5.644;2023-05-07T02:13:29;6.90;;;5.80;;
45007;SDS011;30743;52.008;5.644;2023-05-07T02:15:58;9.75;;;6.15;;
45007;SDS011;30743;52.008;5.644;2023-05-07T02:18:24;6.38;;;5.40;;
45007;SDS011;30743;52.008;5.644;2023-05-07T02:20:49;7.30;;;6.47;;
45007;SDS011;30743;52.008;5.644;2023-05-07T02:23:15;7.15;;;6.25;;
45007;SDS011;30743;52.008;5.644;2023-05-07T02:25:40;8.13;;;5.88;;
45007;SDS011;30743;52.008;5.644;2023-05-07T02:28:06;6.50;;;5.90;;
45007;SDS011;30743;52.008;5.644;2023-05-07T02:30:31;8.15;;;6.05;;
45007;SDS011;30743;52.008;5.644;2023-05-07T02:32:57;8.45;;;6.20;;
45007;SDS011;30743;52.008;5.644;2023-05-07T02:35:24;8.23;;;6.40;;
45007;SDS011;30743;52.008;5.644;2023-05-07T02:37:50;8.25;;;6.45;;
45007;SDS011;30743;52.008;5.644;2023-05-07T02:40:15;7.28;;;6.57;;
45007;SDS011;30743;52.008;5.644;2023-05-07T02:42:41;7.35;;;6.65;;
45007;SDS011;30743;52.008;5.644;2023-05-07T02:45:06;8.00;;;6.30;;
45007;SDS011;30743;52.008;5.644;2023-05-07T02:47:32;8.02;;;6.93;;
45007;SDS011;30743;52.008;5.644;2023-05-07T02:49:58;10.65;;;6.75;;
45007;SDS011;30743;52.008;5.644;2023-05-07T02:52:23;7.32;;;6.20;;
45007;SDS011;30743;52.008;5.644;2023-05-07T02:54:49;7.20;;;6.47;;
45007;SDS011;30743;52.008;5.644;2023-05-07T02:57:15;7.97;;;6.03;;
45007;SDS011;30743;52.008;5.644;2023-05-07T02:59:41;10.98;;;6.80;;
45007;SDS011;30743;52.008;5.644;2023-05-07T03:02:07;7.05;;;6.35;;
45007;SDS011;30743;52.008;5.644;2023-05-07T03:04:32;6.68;;;5.93;;
45007;SDS011;30743;52.008;5.644;2023-05-07T03:06:58;8.38;;;6.68;;
45007;SDS011;30743;52.008;5.644;2023-05-07T03:09:23;7.78;;;6.18;;
45007;SDS011;30743;52.008;5.644;2023-05-07T03:11:49;7.40;;;6.30;;
45007;SDS011;30743;52.008;5.644;2023-05-07T03:14:15;6.63;;;5.82;;
45007;SDS011;30743;52.008;5.644;2023-05-07T03:16:40;8.15;;;6.25;;
45007;SDS011;30743;52.008;5.644;2023-05-07T03:19:06;7.57;;;6.43;;
45007;SDS011;30743;52.008;5.644;2023-05-07T03:21:31;7.00;;;6.25;;
45007;SDS011;30743;52.008;5.644;2023-05-07T03:23:58;7.30;;;5.88;;
45007;SDS011;30743;52.008;5.644;2023-05-07T03:26:25;8.23;;;6.40;;
45007;SDS011;30743;52.008;5.644;2023-05-07T03:28:50;9.65;;;6.82;;
45007;SDS011;30743;52.008;5.644;2023-05-07T03:31:16;7.43;;;6.70;;
45007;SDS011;30743;52.008;5.644;2023-05-07T03:33:55;7.70;;;6.90;;
45007;SDS011;30743;52.008;5.644;2023-05-07T03:36:22;8.93;;;7.15;;
45007;SDS011;30743;52.008;5.644;2023-05-07T03:38:48;8.05;;;6.70;;
45007;SDS011;30743;52.008;5.644;2023-05-07T03:41:15;9.55;;;7.53;;
45007;SDS011;30743;52.008;5.644;2023-05-07T03:43:40;7.85;;;7.05;;
45007;SDS011;30743;52.008;5.644;2023-05-07T03:46:06;10.13;;;7.05;;
45007;SDS011;30743;52.008;5.644;2023-05-07T03:48:32;9.73;;;7.25;;
45007;SDS011;30743;52.008;5.644;2023-05-07T03:50:57;7.75;;;6.85;;
45007;SDS011;30743;52.008;5.644;2023-05-07T03:53:23;11.43;;;7.53;;
45007;SDS011;30743;52.008;5.644;2023-05-07T03:55:49;11.43;;;7.65;;
45007;SDS011;30743;52.008;5.644;2023-05-07T03:58:14;8.05;;;7.25;;
45007;SDS011;30743;52.008;5.644;2023-05-07T04:00:40;8.48;;;7.00;;
45007;SDS011;30743;52.008;5.644;2023-05-07T04:03:06;8.20;;;7.35;;
45007;SDS011;30743;52.008;5.644;2023-05-07T04:05:32;9.18;;;7.95;;
45007;SDS011;30743;52.008;5.644;2023-05-07T04:07:57;9.07;;;8.18;;
45007;SDS011;30743;52.008;5.644;2023-05-07T04:10:23;8.35;;;7.45;;
45007;SDS011;30743;52.008;5.644;2023-05-07T04:12:49;8.65;;;7.45;;
45007;SDS011;30743;52.008;5.644;2023-05-07T04:15:14;8.88;;;7.90;;
45007;SDS011;30743;52.008;5.644;2023-05-07T04:17:40;9.07;;;8.07;;
45007;SDS011;30743;52.008;5.644;2023-05-07T04:20:08;11.27;;;8.30;;
45007;SDS011;30743;52.008;5.644;2023-05-07T04:22:35;9.10;;;8.00;;
45007;SDS011;30743;52.008;5.644;2023-05-07T04:25:01;8.65;;;7.30;;
45007;SDS011;30743;52.008;5.644;2023-05-07T04:27:27;8.55;;;7.40;;
45007;SDS011;30743;52.008;5.644;2023-05-07T04:29:53;10.55;;;7.88;;
45007;SDS011;30743;52.008;5.644;2023-05-07T04:32:20;8.68;;;7.78;;
45007;SDS011;30743;52.008;5.644;2023-05-07T04:34:46;9.27;;;7.93;;
45007;SDS011;30743;52.008;5.644;2023-05-07T04:37:11;9.02;;;7.57;;
45007;SDS011;30743;52.008;5.644;2023-05-07T04:39:37;8.88;;;7.72;;
45007;SDS011;30743;52.008;5.644;2023-05-07T04:42:02;10.93;;;7.55;;
45007;SDS011;30743;52.008;5.644;2023-05-07T04:44:28;10.80;;;8.68;;
45007;SDS011;30743;52.008;5.644;2023-05-07T04:46:56;10.07;;;8.40;;
45007;SDS011;30743;52.008;5.644;2023-05-07T04:49:21;10.27;;;8.50;;
45007;SDS011;30743;52.008;5.644;2023-05-07T04:51:47;11.30;;;9.05;;
45007;SDS011;30743;52.008;5.644;2023-05-07T04:54:13;9.07;;;7.82;;
45007;SDS011;30743;52.008;5.644;2023-05-07T04:56:38;9.07;;;7.88;;
45007;SDS011;30743;52.008;5.644;2023-05-07T04:59:04;8.65;;;7.57;;
45007;SDS011;30743;52.008;5.644;2023-05-07T05:01:29;8.70;;;7.75;;
45007;SDS011;30743;52.008;5.644;2023-05-07T05:03:55;9.27;;;8.15;;
45007;SDS011;30743;52.008;5.644;2023-05-07T05:06:20;8.80;;;8.00;;
45007;SDS011;30743;52.008;5.644;2023-05-07T05:08:46;8.48;;;7.53;;
45007;SDS011;30743;52.008;5.644;2023-05-07T05:11:11;9.20;;;7.53;;
45007;SDS011;30743;52.008;5.644;2023-05-07T05:13:37;9.73;;;8.35;;
45007;SDS011;30743;52.008;5.644;2023-05-07T05:16:02;9.15;;;8.20;;
45007;SDS011;30743;52.008;5.644;2023-05-07T05:18:28;9.82;;;8.40;;
45007;SDS011;30743;52.008;5.644;2023-05-07T05:20:54;10.68;;;8.48;;
45007;SDS011;30743;52.008;5.644;2023-05-07T05:23:19;11.30;;;8.38;;
45007;SDS011;30743;52.008;5.644;2023-05-07T05:25:45;9.23;;;8.32;;
45007;SDS011;30743;52.008;5.644;2023-05-07T05:28:10;8.90;;;7.93;;
45007;SDS011;30743;52.008;5.644;2023-05-07T05:30:36;8.88;;;7.97;;
45007;SDS011;30743;52.008;5.644;2023-05-07T05:33:01;8.50;;;7.60;;
45007;SDS011;30743;52.008;5.644;2023-05-07T05:35:27;9.75;;;8.02;;
45007;SDS011;30743;52.008;5.644;2023-05-07T05:37:52;8.50;;;7.63;;
45007;SDS011;30743;52.008;5.644;2023-05-07T05:40:18;10.02;;;8.27;;
45007;SDS011;30743;52.008;5.644;2023-05-07T05:42:44;14.35;;;8.35;;
45007;SDS011;30743;52.008;5.644;2023-05-07T05:45:09;9.02;;;7.68;;
45007;SDS011;30743;52.008;5.644;2023-05-07T05:47:35;8.85;;;7.85;;
45007;SDS011;30743;52.008;5.644;2023-05-07T05:50:00;8.82;;;7.57;;
45007;SDS011;30743;52.008;5.644;2023-05-07T05:52:26;8.38;;;7.47;;
45007;SDS011;30743;52.008;5.644;2023-05-07T05:54:53;8.07;;;7.28;;
45007;SDS011;30743;52.008;5.644;2023-05-07T05:57:18;10.13;;;7.93;;
45007;SDS011;30743;52.008;5.644;2023-05-07T05:59:44;8.63;;;7.53;;
45007;SDS011;30743;52.008;5.644;2023-05-07T06:02:10;9.52;;;8.02;;
45007;SDS011;30743;52.008;5.644;2023-05-07T06:04:35;8.70;;;7.82;;
45007;SDS011;30743;52.008;5.644;2023-05-07T06:07:01;8.85;;;7.72;;
45007;SDS011;30743;52.008;5.644;2023-05-07T06:09:26;9.73;;;7.38;;
45007;SDS011;30743;52.008;5.644;2023-05-07T06:11:52;9.23;;;8.30;;
45007;SDS011;30743;52.008;5.644;2023-05-07T06:14:17;9.07;;;8.18;;
45007;SDS011;30743;52.008;5.644;2023-05-07T06:16:43;12.20;;;7.85;;
45007;SDS011;30743;52.008;5.644;2023-05-07T06:19:09;9.20;;;7.72;;
45007;SDS011;30743;52.008;5.644;2023-05-07T06:21:34;10.60;;;8.23;;
45007;SDS011;30743;52.008;5.644;2023-05-07T06:24:00;9.25;;;8.23;;
45007;SDS011;30743;52.008;5.644;2023-05-07T06:26:25;8.85;;;7.90;;
45007;SDS011;30743;52.008;5.644;2023-05-07T06:28:51;8.93;;;8.02;;
45007;SDS011;30743;52.008;5.644;2023-05-07T06:31:20;8.63;;;7.78;;
45007;SDS011;30743;52.008;5.644;2023-05-07T06:33:45;8.63;;;7.75;;
45007;SDS011;30743;52.008;5.644;2023-05-07T06:36:11;10.02;;;7.68;;
45007;SDS011;30743;52.008;5.644;2023-05-07T06:38:37;10.57;;;7.82;;
45007;SDS011;30743;52.008;5.644;2023-05-07T06:41:02;9.52;;;8.02;;
45007;SDS011;30743;52.008;5.644;2023-05-07T06:43:28;13.02;;;8.00;;
45007;SDS011;30743;52.008;5.644;2023-05-07T06:45:53;11.05;;;8.20;;
45007;SDS011;30743;52.008;5.644;2023-05-07T06:48:19;8.80;;;7.75;;
45007;SDS011;30743;52.008;5.644;2023-05-07T06:50:45;8.77;;;7.82;;
45007;SDS011;30743;52.008;5.644;2023-05-07T06:53:10;11.32;;;7.72;;
45007;SDS011;30743;52.008;5.644;2023-05-07T06:55:36;9.57;;;8.38;;
45007;SDS011;30743;52.008;5.644;2023-05-07T06:58:03;8.52;;;7.63;;
45007;SDS011;30743;52.008;5.644;2023-05-07T07:00:28;8.77;;;7.57;;
45007;SDS011;30743;52.008;5.644;2023-05-07T07:02:54;9.45;;;7.85;;
45007;SDS011;30743;52.008;5.644;2023-05-07T07:05:20;10.00;;;6.95;;
45007;SDS011;30743;52.008;5.644;2023-05-07T07:07:46;8.60;;;7.03;;
45007;SDS011;30743;52.008;5.644;2023-05-07T07:10:18;9.38;;;7.78;;
45007;SDS011;30743;52.008;5.644;2023-05-07T07:12:44;7.78;;;6.68;;
45007;SDS011;30743;52.008;5.644;2023-05-07T07:15:10;8.52;;;7.70;;
45007;SDS011;30743;52.008;5.644;2023-05-07T07:17:36;8.70;;;7.43;;
45007;SDS011;30743;52.008;5.644;2023-05-07T07:20:01;7.85;;;7.05;;
45007;SDS011;30743;52.008;5.644;2023-05-07T07:22:27;9.93;;;7.70;;
45007;SDS011;30743;52.008;5.644;2023-05-07T07:24:53;8.63;;;7.55;;
45007;SDS011;30743;52.008;5.644;2023-05-07T07:27:19;8.15;;;7.18;;
45007;SDS011;30743;52.008;5.644;2023-05-07T07:29:44;8.65;;;7.72;;
45007;SDS011;30743;52.008;5.644;2023-05-07T07:32:10;9.13;;;7.95;;
45007;SDS011;30743;52.008;5.644;2023-05-07T07:34:36;9.02;;;7.85;;
45007;SDS011;30743;52.008;5.644;2023-05-07T07:37:01;8.15;;;7.30;;
45007;SDS011;30743;52.008;5.644;2023-05-07T07:39:30;8.65;;;7.72;;
45007;SDS011;30743;52.008;5.644;2023-05-07T07:41:56;8.23;;;7.30;;
45007;SDS011;30743;52.008;5.644;2023-05-07T07:44:21;8.52;;;7.63;;
45007;SDS011;30743;52.008;5.644;2023-05-07T07:46:47;7.80;;;7.03;;
45007;SDS011;30743;52.008;5.644;2023-05-07T07:49:12;7.85;;;7.03;;
45007;SDS011;30743;52.008;5.644;2023-05-07T07:51:39;8.75;;;7.85;;
45007;SDS011;30743;52.008;5.644;2023-05-07T07:54:04;8.85;;;7.95;;
45007;SDS011;30743;52.008;5.644;2023-05-07T07:56:31;8.68;;;7.78;;
45007;SDS011;30743;52.008;5.644;2023-05-07T07:58:58;9.75;;;8.00;;
45007;SDS011;30743;52.008;5.644;2023-05-07T08:01:24;8.70;;;7.70;;
45007;SDS011;30743;52.008;5.644;2023-05-07T08:03:49;10.90;;;8.43;;
45007;SDS011;30743;52.008;5.644;2023-05-07T08:06:15;8.10;;;7.03;;
45007;SDS011;30743;52.008;5.644;2023-05-07T08:08:40;8.98;;;8.07;;
45007;SDS011;30743;52.008;5.644;2023-05-07T08:11:06;9.38;;;8.25;;
45007;SDS011;30743;52.008;5.644;2023-05-07T08:13:32;9.55;;;8.65;;
45007;SDS011;30743;52.008;5.644;2023-05-07T08:15:57;9.60;;;8.60;;
45007;SDS011;30743;52.008;5.644;2023-05-07T08:18:23;10.77;;;9.05;;
45007;SDS011;30743;52.008;5.644;2023-05-07T08:20:49;10.32;;;9.23;;
45007;SDS011;30743;52.008;5.644;2023-05-07T08:23:15;9.90;;;8.82;;
45007;SDS011;30743;52.008;5.644;2023-05-07T08:25:41;10.63;;;8.38;;
45007;SDS011;30743;52.008;5.644;2023-05-07T08:28:07;9.57;;;8.13;;
45007;SDS011;30743;52.008;5.644;2023-05-07T08:30:33;9.85;;;8.35;;
45007;SDS011;30743;52.008;5.644;2023-05-07T08:32:59;10.63;;;8.98;;
45007;SDS011;30743;52.008;5.644;2023-05-07T08:35:25;10.73;;;8.98;;
45007;SDS011;30743;52.008;5.644;2023-05-07T08:37:51;11.38;;;9.95;;
45007;SDS011;30743;52.008;5.644;2023-05-07T08:40:17;11.07;;;10.00;;
45007;SDS011;30743;52.008;5.644;2023-05-07T08:42:43;10.18;;;9.18;;
45007;SDS011;30743;52.008;5.644;2023-05-07T08:45:10;10.35;;;9.25;;
45007;SDS011;30743;52.008;5.644;2023-05-07T08:47:41;10.60;;;9.32;;
45007;SDS011;30743;52.008;5.644;2023-05-07T08:50:10;11.48;;;10.30;;
45007;SDS011;30743;52.008;5.644;2023-05-07T08:52:36;10.77;;;9.07;;
45007;SDS011;30743;52.008;5.644;2023-05-07T08:55:02;10.18;;;9.10;;
45007;SDS011;30743;52.008;5.644;2023-05-07T08:57:28;11.23;;;8.68;;
45007;SDS011;30743;52.008;5.644;2023-05-07T08:59:54;13.18;;;9.82;;
45007;SDS011;30743;52.008;5.644;2023-05-07T09:02:20;10.43;;;9.35;;
45007;SDS011;30743;52.008;5.644;2023-05-07T09:04:45;12.05;;;9.85;;
45007;SDS011;30743;52.008;5.644;2023-05-07T09:07:11;10.70;;;9.10;;
45007;SDS011;30743;52.008;5.644;2023-05-07T09:09:36;12.38;;;8.95;;
45007;SDS011;30743;52.008;5.644;2023-05-07T09:12:02;10.93;;;8.57;;
45007;SDS011;30743;52.008;5.644;2023-05-07T09:14:28;8.43;;;7.43;;
45007;SDS011;30743;52.008;5.644;2023-05-07T09:16:55;10.48;;;7.78;;
45007;SDS011;30743;52.008;5.644;2023-05-07T09:19:25;10.27;;;7.45;;
45007;SDS011;30743;52.008;5.644;2023-05-07T09:21:58;8.57;;;7.13;;
45007;SDS011;30743;52.008;5.644;2023-05-07T09:24:28;8.27;;;7.47;;
45007;SDS011;30743;52.008;5.644;2023-05-07T09:26:57;8.98;;;7.60;;
45007;SDS011;30743;52.008;5.644;2023-05-07T09:29:24;9.10;;;7.10;;
45007;SDS011;30743;52.008;5.644;2023-05-07T09:31:50;8.98;;;6.57;;
45007;SDS011;30743;52.008;5.644;2023-05-07T09:34:15;11.18;;;7.15;;
45007;SDS011;30743;52.008;5.644;2023-05-07T09:36:41;10.32;;;6.60;;
45007;SDS011;30743;52.008;5.644;2023-05-07T09:39:07;12.35;;;7.00;;
45007;SDS011;30743;52.008;5.644;2023-05-07T09:41:32;8.38;;;6.13;;
45007;SDS011;30743;52.008;5.644;2023-05-07T09:44:07;10.35;;;6.03;;
45007;SDS011;30743;52.008;5.644;2023-05-07T09:46:33;6.82;;;5.43;;
45007;SDS011;30743;52.008;5.644;2023-05-07T09:49:03;7.30;;;5.75;;
45007;SDS011;30743;52.008;5.644;2023-05-07T09:51:38;7.28;;;5.28;;
45007;SDS011;30743;52.008;5.644;2023-05-07T09:54:08;8.40;;;5.68;;
45007;SDS011;30743;52.008;5.644;2023-05-07T09:56:35;7.28;;;4.53;;
45007;SDS011;30743;52.008;5.644;2023-05-07T09:59:02;8.00;;;5.25;;
45007;SDS011;30743;52.008;5.644;2023-05-07T10:01:29;5.63;;;4.65;;
45007;SDS011;30743;52.008;5.644;2023-05-07T10:03:56;6.78;;;4.38;;
45007;SDS011;30743;52.008;5.644;2023-05-07T10:06:23;6.20;;;4.10;;
45007;SDS011;30743;52.008;5.644;2023-05-07T10:08:50;5.90;;;4.53;;
45007;SDS011;30743;52.008;5.644;2023-05-07T10:11:17;6.72;;;4.50;;
45007;SDS011;30743;52.008;5.644;2023-05-07T10:13:43;5.45;;;3.75;;
45007;SDS011;30743;52.008;5.644;2023-05-07T10:16:09;6.22;;;4.07;;
45007;SDS011;30743;52.008;5.644;2023-05-07T10:18:35;5.68;;;4.07;;
45007;SDS011;30743;52.008;5.644;2023-05-07T10:23:33;6.22;;;4.55;;
45007;SDS011;30743;52.008;5.644;2023-05-07T10:25:59;5.18;;;3.83;;
45007;SDS011;30743;52.008;5.644;2023-05-07T10:28:29;5.40;;;4.22;;
45007;SDS011;30743;52.008;5.644;2023-05-07T10:34:10;6.63;;;4.45;;
45007;SDS011;30743;52.008;5.644;2023-05-07T10:36:38;7.43;;;4.05;;
45007;SDS011;30743;52.008;5.644;2023-05-07T10:39:04;4.78;;;3.83;;
45007;SDS011;30743;52.008;5.644;2023-05-07T10:41:31;4.45;;;3.50;;
45007;SDS011;30743;52.008;5.644;2023-05-07T10:43:56;8.30;;;3.95;;
45007;SDS011;30743;52.008;5.644;2023-05-07T10:46:22;6.20;;;3.80;;
45007;SDS011;30743;52.008;5.644;2023-05-07T10:51:30;5.15;;;3.58;;
45007;SDS011;30743;52.008;5.644;2023-05-07T10:56:35;5.55;;;3.25;;
45007;SDS011;30743;52.008;5.644;2023-05-07T11:01:56;3.97;;;3.00;;
45007;SDS011;30743;52.008;5.644;2023-05-07T11:04:23;4.28;;;3.30;;
45007;SDS011;30743;52.008;5.644;2023-05-07T11:12:46;3.83;;;2.80;;
45007;SDS011;30743;52.008;5.644;2023-05-07T11:15:15;3.97;;;3.03;;
45007;SDS011;30743;52.008;5.644;2023-05-07T11:18:01;4.75;;;3.05;;
45007;SDS011;30743;52.008;5.644;2023-05-07T11:25:59;4.07;;;3.30;;
45007;SDS011;30743;52.008;5.644;2023-05-07T11:28:30;5.63;;;3.20;;
45007;SDS011;30743;52.008;5.644;2023-05-07T11:30:56;4.28;;;3.22;;
45007;SDS011;30743;52.008;5.644;2023-05-07T11:33:22;4.05;;;3.10;;
45007;SDS011;30743;52.008;5.644;2023-05-07T11:35:50;7.15;;;3.40;;
45007;SDS011;30743;52.008;5.644;2023-05-07T11:38:18;6.28;;;3.75;;
45007;SDS011;30743;52.008;5.644;2023-05-07T11:40:54;5.95;;;3.80;;
45007;SDS011;30743;52.008;5.644;2023-05-07T11:43:21;4.40;;;3.85;;
45007;SDS011;30743;52.008;5.644;2023-05-07T11:45:47;5.32;;;4.00;;
45007;SDS011;30743;52.008;5.644;2023-05-07T11:48:13;6.28;;;4.00;;
45007;SDS011;30743;52.008;5.644;2023-05-07T11:50:53;6.32;;;2.95;;
45007;SDS011;30743;52.008;5.644;2023-05-07T11:53:44;4.38;;;3.25;;
45007;SDS011;30743;52.008;5.644;2023-05-07T11:56:11;5.90;;;3.58;;
45007;SDS011;30743;52.008;5.644;2023-05-07T11:58:38;6.65;;;4.28;;
45007;SDS011;30743;52.008;5.644;2023-05-07T12:01:06;5.72;;;3.90;;
45007;SDS011;30743;52.008;5.644;2023-05-07T12:03:33;5.75;;;4.75;;
45007;SDS011;30743;52.008;5.644;2023-05-07T12:05:59;4.85;;;3.88;;
45007;SDS011;30743;52.008;5.644;2023-05-07T12:08:25;7.22;;;4.85;;
45007;SDS011;30743;52.008;5.644;2023-05-07T12:10:50;9.38;;;5.53;;
45007;SDS011;30743;52.008;5.644;2023-05-07T12:13:20;9.73;;;5.28;;
45007;SDS011;30743;52.008;5.644;2023-05-07T12:15:50;4.32;;;3.55;;
45007;SDS011;30743;52.008;5.644;2023-05-07T12:18:17;4.40;;;3.67;;
45007;SDS011;30743;52.008;5.644;2023-05-07T12:20:43;7.10;;;4.18;;
45007;SDS011;30743;52.008;5.644;2023-05-07T12:23:09;6.45;;;4.00;;
45007;SDS011;30743;52.008;5.644;2023-05-07T12:25:36;5.93;;;4.05;;
45007;SDS011;30743;52.008;5.644;2023-05-07T12:28:07;5.07;;;3.40;;
45007;SDS011;30743;52.008;5.644;2023-05-07T12:30:39;6.65;;;4.03;;
45007;SDS011;30743;52.008;5.644;2023-05-07T12:33:05;5.07;;;3.53;;
45007;SDS011;30743;52.008;5.644;2023-05-07T12:35:31;4.53;;;3.45;;
45007;SDS011;30743;52.008;5.644;2023-05-07T12:38:01;4.80;;;2.72;;
45007;SDS011;30743;52.008;5.644;2023-05-07T12:41:02;3.67;;;2.13;;
45007;SDS011;30743;52.008;5.644;2023-05-07T12:43:23;4.20;;;3.58;;
45007;SDS011;30743;52.008;5.644;2023-05-07T12:45:51;5.80;;;2.30;;
45007;SDS011;30743;52.008;5.644;2023-05-07T12:48:19;3.42;;;2.20;;
45007;SDS011;30743;52.008;5.644;2023-05-07T12:50:49;4.90;;;3.00;;
45007;SDS011;30743;52.008;5.644;2023-05-07T12:53:39;4.28;;;2.50;;
45007;SDS011;30743;52.008;5.644;2023-05-07T12:56:08;3.70;;;1.90;;
45007;SDS011;30743;52.008;5.644;2023-05-07T12:58:35;4.32;;;2.78;;
45007;SDS011;30743;52.008;5.644;2023-05-07T13:01:04;4.07;;;1.95;;
45007;SDS011;30743;52.008;5.644;2023-05-07T13:03:32;4.30;;;2.35;;
45007;SDS011;30743;52.008;5.644;2023-05-07T13:06:02;4.50;;;2.97;;
45007;SDS011;30743;52.008;5.644;2023-05-07T13:08:30;5.03;;;3.05;;
45007;SDS011;30743;52.008;5.644;2023-05-07T13:10:58;5.30;;;3.33;;
45007;SDS011;30743;52.008;5.644;2023-05-07T13:13:25;6.68;;;4.45;;
45007;SDS011;30743;52.008;5.644;2023-05-07T13:15:50;5.35;;;4.30;;
45007;SDS011;30743;52.008;5.644;2023-05-07T13:18:16;7.18;;;4.90;;
45007;SDS011;30743;52.008;5.644;2023-05-07T13:20:42;6.05;;;4.93;;
45007;SDS011;30743;52.008;5.644;2023-05-07T13:23:08;4.10;;;3.60;;
45007;SDS011;30743;52.008;5.644;2023-05-07T13:25:33;6.03;;;4.30;;
45007;SDS011;30743;52.008;5.644;2023-05-07T13:27:59;5.15;;;4.65;;
45007;SDS011;30743;52.008;5.644;2023-05-07T13:30:24;5.95;;;4.20;;
45007;SDS011;30743;52.008;5.644;2023-05-07T13:32:50;4.45;;;3.70;;
45007;SDS011;30743;52.008;5.644;2023-05-07T13:35:18;6.03;;;4.38;;
45007;SDS011;30743;52.008;5.644;2023-05-07T13:37:44;5.57;;;4.15;;
45007;SDS011;30743;52.008;5.644;2023-05-07T13:40:09;4.00;;;3.05;;
45007;SDS011;30743;52.008;5.644;2023-05-07T13:42:35;3.55;;;2.33;;
45007;SDS011;30743;52.008;5.644;2023-05-07T13:45:01;3.38;;;2.25;;
45007;SDS011;30743;52.008;5.644;2023-05-07T13:47:30;3.85;;;2.20;;
45007;SDS011;30743;52.008;5.644;2023-05-07T13:49:56;5.95;;;2.80;;
45007;SDS011;30743;52.008;5.644;2023-05-07T13:52:21;2.97;;;1.90;;
45007;SDS011;30743;52.008;5.644;2023-05-07T13:54:47;3.70;;;1.92;;
45007;SDS011;30743;52.008;5.644;2023-05-07T13:57:12;3.20;;;1.65;;
45007;SDS011;30743;52.008;5.644;2023-05-07T13:59:38;3.63;;;2.50;;
45007;SDS011;30743;52.008;5.644;2023-05-07T14:02:03;4.03;;;2.78;;
45007;SDS011;30743;52.008;5.644;2023-05-07T14:04:30;4.03;;;2.10;;
45007;SDS011;30743;52.008;5.644;2023-05-07T14:06:55;4.07;;;2.60;;
45007;SDS011;30743;52.008;5.644;2023-05-07T14:09:21;4.13;;;2.83;;
45007;SDS011;30743;52.008;5.644;2023-05-07T14:11:46;4.82;;;2.63;;
45007;SDS011;30743;52.008;5.644;2023-05-07T14:14:16;4.70;;;2.90;;
45007;SDS011;30743;52.008;5.644;2023-05-07T14:16:44;3.65;;;2.40;;
45007;SDS011;30743;52.008;5.644;2023-05-07T14:19:10;3.33;;;2.75;;
45007;SDS011;30743;52.008;5.644;2023-05-07T14:21:36;3.13;;;2.60;;
45007;SDS011;30743;52.008;5.644;2023-05-07T14:24:02;4.28;;;2.78;;
45007;SDS011;30743;52.008;5.644;2023-05-07T14:26:27;6.32;;;2.83;;
45007;SDS011;30743;52.008;5.644;2023-05-07T14:28:54;4.55;;;3.50;;
45007;SDS011;30743;52.008;5.644;2023-05-07T14:31:22;5.63;;;4.03;;
45007;SDS011;30743;52.008;5.644;2023-05-07T14:33:47;6.85;;;4.10;;
45007;SDS011;30743;52.008;5.644;2023-05-07T14:36:14;8.05;;;4.93;;
45007;SDS011;30743;52.008;5.644;2023-05-07T14:38:40;5.82;;;5.22;;
45007;SDS011;30743;52.008;5.644;2023-05-07T14:41:06;8.10;;;5.35;;
45007;SDS011;30743;52.008;5.644;2023-05-07T14:43:31;6.45;;;5.72;;
45007;SDS011;30743;52.008;5.644;2023-05-07T14:45:57;20.25;;;6.07;;
45007;SDS011;30743;52.008;5.644;2023-05-07T14:48:22;9.63;;;5.57;;
45007;SDS011;30743;52.008;5.644;2023-05-07T14:50:48;6.88;;;4.63;;
45007;SDS011;30743;52.008;5.644;2023-05-07T14:53:13;6.28;;;4.70;;
45007;SDS011;30743;52.008;5.644;2023-05-07T14:55:39;4.80;;;4.05;;
45007;SDS011;30743;52.008;5.644;2023-05-07T14:58:05;6.28;;;4.55;;
45007;SDS011;30743;52.008;5.644;2023-05-07T15:00:30;7.18;;;4.10;;
45007;SDS011;30743;52.008;5.644;2023-05-07T15:03:00;6.90;;;4.28;;
45007;SDS011;30743;52.008;5.644;2023-05-07T15:05:35;6.25;;;5.28;;
45007;SDS011;30743;52.008;5.644;2023-05-07T15:08:01;5.60;;;4.97;;